sensor_id;sensor_type;location;lat;lon;timestamp;P1;durP1;ratioP1;P2;durP2;ratioP2
40449;SDS011;41787;53.570;10.032;2023-03-01T00:01:25;16.08;;;7.88;;
40449;SDS011;41787;53.570;10.032;2023-03-01T00:06:19;15.00;;;7.22;;
40449;SDS011;41787;53.570;10.032;2023-03-01T00:08:52;15.63;;;7.82;;
40449;SDS011;41787;53.570;10.032;2023-03-01T00:11:20;21.80;;;7.63;;
40449;SDS011;41787;53.570;10.032;2023-03-01T00:13:47;17.15;;;7.40;;
40449;SDS011;41787;53.570;10.032;2023-03-01T00:16:15;13.05;;;7.80;;
40449;SDS011;41787;53.570;10.032;2023-03-01T00:18:42;17.20;;;7.35;;
40449;SDS011;41787;53.570;10.032;2023-03-01T00:21:08;18.58;;;7.60;;
40449;SDS011;41787;53.570;10.032;2023-03-01T00:23:34;15.77;;;7.22;;
40449;SDS011;41787;53.570;10.032;2023-03-01T00:26:00;16.50;;;7.63;;
40449;SDS011;41787;53.570;10.032;2023-03-01T00:28:26;17.33;;;8.05;;
40449;SDS011;41787;53.570;10.032;2023-03-01T00:30:52;14.57;;;7.63;;
40449;SDS011;41787;53.570;10.032;2023-03-01T00:33:19;18.02;;;7.72;;
40449;SDS011;41787;53.570;10.032;2023-03-01T00:35:46;16.52;;;7.47;;
40449;SDS011;41787;53.570;10.032;2023-03-01T00:38:12;16.35;;;8.13;;
40449;SDS011;41787;53.570;10.032;2023-03-01T00:40:38;16.48;;;7.93;;
40449;SDS011;41787;53.570;10.032;2023-03-01T00:43:05;15.73;;;7.07;;
40449;SDS011;41787;53.570;10.032;2023-03-01T00:45:32;14.32;;;7.68;;
40449;SDS011;41787;53.570;10.032;2023-03-01T00:47:58;17.95;;;7.78;;
40449;SDS011;41787;53.570;10.032;2023-03-01T00:50:26;15.43;;;7.97;;
40449;SDS011;41787;53.570;10.032;2023-03-01T00:52:55;16.42;;;7.50;;
40449;SDS011;41787;53.570;10.032;2023-03-01T00:55:22;16.83;;;7.93;;
40449;SDS011;41787;53.570;10.032;2023-03-01T00:57:48;16.60;;;7.40;;
40449;SDS011;41787;53.570;10.032;2023-03-01T01:00:14;15.18;;;7.95;;
40449;SDS011;41787;53.570;10.032;2023-03-01T01:02:40;20.00;;;7.90;;
40449;SDS011;41787;53.570;10.032;2023-03-01T01:05:06;20.70;;;8.13;;
40449;SDS011;41787;53.570;10.032;2023-03-01T01:07:32;27.27;;;9.32;;
40449;SDS011;41787;53.570;10.032;2023-03-01T01:09:58;18.58;;;8.00;;
40449;SDS011;41787;53.570;10.032;2023-03-01T01:12:24;20.23;;;8.25;;
40449;SDS011;41787;53.570;10.032;2023-03-01T01:14:50;17.98;;;7.35;;
40449;SDS011;41787;53.570;10.032;2023-03-01T01:17:16;18.15;;;7.55;;
40449;SDS011;41787;53.570;10.032;2023-03-01T01:19:42;24.05;;;8.18;;
40449;SDS011;41787;53.570;10.032;2023-03-01T01:22:09;23.67;;;8.70;;
40449;SDS011;41787;53.570;10.032;2023-03-01T01:24:35;14.70;;;8.38;;
40449;SDS011;41787;53.570;10.032;2023-03-01T01:27:01;20.15;;;8.88;;
40449;SDS011;41787;53.570;10.032;2023-03-01T01:29:26;15.93;;;8.20;;
40449;SDS011;41787;53.570;10.032;2023-03-01T01:31:52;23.05;;;8.40;;
40449;SDS011;41787;53.570;10.032;2023-03-01T01:34:19;22.67;;;8.77;;
40449;SDS011;41787;53.570;10.032;2023-03-01T01:36:52;15.82;;;8.30;;
40449;SDS011;41787;53.570;10.032;2023-03-01T01:39:19;17.20;;;7.85;;
40449;SDS011;41787;53.570;10.032;2023-03-01T01:41:45;14.00;;;7.78;;
40449;SDS011;41787;53.570;10.032;2023-03-01T01:44:15;18.92;;;8.32;;
40449;SDS011;41787;53.570;10.032;2023-03-01T01:46:43;21.92;;;8.60;;
40449;SDS011;41787;53.570;10.032;2023-03-01T01:49:24;18.58;;;8.95;;
40449;SDS011;41787;53.570;10.032;2023-03-01T01:51:51;16.42;;;8.32;;
40449;SDS011;41787;53.570;10.032;2023-03-01T01:54:21;21.30;;;8.68;;
40449;SDS011;41787;53.570;10.032;2023-03-01T01:56:54;22.92;;;8.75;;
40449;SDS011;41787;53.570;10.032;2023-03-01T01:59:22;15.75;;;7.95;;
40449;SDS011;41787;53.570;10.032;2023-03-01T02:01:49;14.88;;;8.13;;
40449;SDS011;41787;53.570;10.032;2023-03-01T02:04:15;23.10;;;8.55;;
40449;SDS011;41787;53.570;10.032;2023-03-01T02:06:44;17.40;;;9.00;;
40449;SDS011;41787;53.570;10.032;2023-03-01T02:09:12;15.88;;;8.35;;
40449;SDS011;41787;53.570;10.032;2023-03-01T02:11:38;21.70;;;7.72;;
40449;SDS011;41787;53.570;10.032;2023-03-01T02:14:05;18.65;;;8.63;;
40449;SDS011;41787;53.570;10.032;2023-03-01T02:16:31;19.30;;;8.05;;
40449;SDS011;41787;53.570;10.032;2023-03-01T02:18:57;19.55;;;8.27;;
40449;SDS011;41787;53.570;10.032;2023-03-01T02:21:33;19.95;;;9.13;;
40449;SDS011;41787;53.570;10.032;2023-03-01T02:24:04;17.63;;;8.48;;
40449;SDS011;41787;53.570;10.032;2023-03-01T02:28:57;22.48;;;8.75;;
40449;SDS011;41787;53.570;10.032;2023-03-01T02:31:23;14.65;;;7.82;;
40449;SDS011;41787;53.570;10.032;2023-03-01T02:34:09;21.38;;;8.25;;
40449;SDS011;41787;53.570;10.032;2023-03-01T02:36:38;18.42;;;8.13;;
40449;SDS011;41787;53.570;10.032;2023-03-01T02:39:05;21.27;;;9.55;;
40449;SDS011;41787;53.570;10.032;2023-03-01T02:41:33;20.02;;;8.85;;
40449;SDS011;41787;53.570;10.032;2023-03-01T02:44:00;20.30;;;8.27;;
40449;SDS011;41787;53.570;10.032;2023-03-01T02:46:26;21.88;;;8.93;;
40449;SDS011;41787;53.570;10.032;2023-03-01T02:48:53;20.67;;;9.05;;
40449;SDS011;41787;53.570;10.032;2023-03-01T02:51:26;19.42;;;8.57;;
40449;SDS011;41787;53.570;10.032;2023-03-01T02:54:02;25.33;;;8.45;;
40449;SDS011;41787;53.570;10.032;2023-03-01T02:56:31;17.27;;;7.85;;
40449;SDS011;41787;53.570;10.032;2023-03-01T02:58:59;18.73;;;8.52;;
40449;SDS011;41787;53.570;10.032;2023-03-01T03:01:28;19.02;;;7.32;;
40449;SDS011;41787;53.570;10.032;2023-03-01T03:04:02;13.20;;;6.35;;
40449;SDS011;41787;53.570;10.032;2023-03-01T03:06:30;18.40;;;7.65;;
40449;SDS011;41787;53.570;10.032;2023-03-01T03:08:56;15.10;;;6.07;;
40449;SDS011;41787;53.570;10.032;2023-03-01T03:11:22;12.02;;;5.15;;
40449;SDS011;41787;53.570;10.032;2023-03-01T03:13:48;13.90;;;5.55;;
40449;SDS011;41787;53.570;10.032;2023-03-01T03:16:14;11.40;;;4.90;;
40449;SDS011;41787;53.570;10.032;2023-03-01T03:18:40;12.02;;;6.50;;
40449;SDS011;41787;53.570;10.032;2023-03-01T03:21:09;11.88;;;6.45;;
40449;SDS011;41787;53.570;10.032;2023-03-01T03:23:38;15.30;;;6.10;;
40449;SDS011;41787;53.570;10.032;2023-03-01T03:26:07;20.60;;;6.80;;
40449;SDS011;41787;53.570;10.032;2023-03-01T03:28:33;15.27;;;6.35;;
40449;SDS011;41787;53.570;10.032;2023-03-01T03:31:00;10.23;;;5.53;;
40449;SDS011;41787;53.570;10.032;2023-03-01T03:33:31;10.43;;;5.78;;
40449;SDS011;41787;53.570;10.032;2023-03-01T03:35:57;11.80;;;6.78;;
40449;SDS011;41787;53.570;10.032;2023-03-01T03:38:23;9.38;;;4.63;;
40449;SDS011;41787;53.570;10.032;2023-03-01T03:40:59;11.80;;;5.10;;
40449;SDS011;41787;53.570;10.032;2023-03-01T03:43:27;15.50;;;5.05;;
40449;SDS011;41787;53.570;10.032;2023-03-01T03:45:53;9.63;;;5.40;;
40449;SDS011;41787;53.570;10.032;2023-03-01T03:48:19;11.18;;;5.10;;
40449;SDS011;41787;53.570;10.032;2023-03-01T03:50:52;8.30;;;4.57;;
40449;SDS011;41787;53.570;10.032;2023-03-01T03:53:18;17.60;;;5.18;;
40449;SDS011;41787;53.570;10.032;2023-03-01T03:55:44;10.90;;;4.45;;
40449;SDS011;41787;53.570;10.032;2023-03-01T03:58:14;7.40;;;4.15;;
40449;SDS011;41787;53.570;10.032;2023-03-01T04:00:42;9.38;;;4.22;;
40449;SDS011;41787;53.570;10.032;2023-03-01T04:03:09;11.63;;;5.00;;
40449;SDS011;41787;53.570;10.032;2023-03-01T04:05:36;8.02;;;4.07;;
40449;SDS011;41787;53.570;10.032;2023-03-01T04:08:02;10.20;;;4.65;;
40449;SDS011;41787;53.570;10.032;2023-03-01T04:10:32;6.65;;;4.05;;
40449;SDS011;41787;53.570;10.032;2023-03-01T04:12:59;7.75;;;3.33;;
40449;SDS011;41787;53.570;10.032;2023-03-01T04:15:25;7.45;;;3.88;;
40449;SDS011;41787;53.570;10.032;2023-03-01T04:17:52;9.07;;;3.17;;
40449;SDS011;41787;53.570;10.032;2023-03-01T04:20:22;6.50;;;3.53;;
40449;SDS011;41787;53.570;10.032;2023-03-01T04:22:56;9.57;;;4.50;;
40449;SDS011;41787;53.570;10.032;2023-03-01T04:25:35;7.38;;;3.60;;
40449;SDS011;41787;53.570;10.032;2023-03-01T04:28:01;8.80;;;4.18;;
40449;SDS011;41787;53.570;10.032;2023-03-01T04:30:27;8.63;;;3.95;;
40449;SDS011;41787;53.570;10.032;2023-03-01T04:32:53;5.93;;;3.20;;
40449;SDS011;41787;53.570;10.032;2023-03-01T04:35:19;7.00;;;3.08;;
40449;SDS011;41787;53.570;10.032;2023-03-01T04:37:45;10.05;;;3.00;;
40449;SDS011;41787;53.570;10.032;2023-03-01T04:40:11;6.07;;;3.30;;
40449;SDS011;41787;53.570;10.032;2023-03-01T04:42:41;5.35;;;3.10;;
40449;SDS011;41787;53.570;10.032;2023-03-01T04:45:07;8.70;;;3.72;;
40449;SDS011;41787;53.570;10.032;2023-03-01T04:47:38;5.80;;;3.10;;
40449;SDS011;41787;53.570;10.032;2023-03-01T04:50:04;8.60;;;3.35;;
40449;SDS011;41787;53.570;10.032;2023-03-01T04:52:30;9.15;;;3.53;;
40449;SDS011;41787;53.570;10.032;2023-03-01T04:54:56;13.60;;;3.47;;
40449;SDS011;41787;53.570;10.032;2023-03-01T04:57:22;7.95;;;3.47;;
40449;SDS011;41787;53.570;10.032;2023-03-01T04:59:48;10.13;;;4.13;;
40449;SDS011;41787;53.570;10.032;2023-03-01T05:02:14;6.45;;;3.40;;
40449;SDS011;41787;53.570;10.032;2023-03-01T05:04:40;7.68;;;4.18;;
40449;SDS011;41787;53.570;10.032;2023-03-01T05:07:06;8.32;;;4.30;;
40449;SDS011;41787;53.570;10.032;2023-03-01T05:09:32;6.47;;;3.70;;
40449;SDS011;41787;53.570;10.032;2023-03-01T05:11:58;10.23;;;3.63;;
40449;SDS011;41787;53.570;10.032;2023-03-01T05:14:26;6.22;;;3.70;;
40449;SDS011;41787;53.570;10.032;2023-03-01T05:16:53;8.93;;;3.05;;
40449;SDS011;41787;53.570;10.032;2023-03-01T05:19:19;5.38;;;3.10;;
40449;SDS011;41787;53.570;10.032;2023-03-01T05:21:47;6.10;;;3.30;;
40449;SDS011;41787;53.570;10.032;2023-03-01T05:24:29;6.22;;;3.67;;
40449;SDS011;41787;53.570;10.032;2023-03-01T05:26:55;9.15;;;3.85;;
40449;SDS011;41787;53.570;10.032;2023-03-01T05:29:22;5.05;;;3.40;;
40449;SDS011;41787;53.570;10.032;2023-03-01T05:31:55;9.52;;;3.70;;
40449;SDS011;41787;53.570;10.032;2023-03-01T05:34:25;7.70;;;3.80;;
40449;SDS011;41787;53.570;10.032;2023-03-01T05:36:53;7.55;;;3.97;;
40449;SDS011;41787;53.570;10.032;2023-03-01T05:39:20;7.47;;;3.47;;
40449;SDS011;41787;53.570;10.032;2023-03-01T05:41:47;6.60;;;4.00;;
40449;SDS011;41787;53.570;10.032;2023-03-01T05:44:13;8.52;;;4.25;;
40449;SDS011;41787;53.570;10.032;2023-03-01T05:46:39;8.25;;;4.47;;
40449;SDS011;41787;53.570;10.032;2023-03-01T05:49:05;7.20;;;3.60;;
40449;SDS011;41787;53.570;10.032;2023-03-01T05:51:32;11.02;;;5.05;;
40449;SDS011;41787;53.570;10.032;2023-03-01T05:53:58;10.60;;;5.30;;
40449;SDS011;41787;53.570;10.032;2023-03-01T05:56:24;10.15;;;5.15;;
40449;SDS011;41787;53.570;10.032;2023-03-01T05:58:50;9.02;;;5.35;;
40449;SDS011;41787;53.570;10.032;2023-03-01T06:01:16;14.63;;;7.10;;
40449;SDS011;41787;53.570;10.032;2023-03-01T06:03:42;14.10;;;6.68;;
40449;SDS011;41787;53.570;10.032;2023-03-01T06:06:08;11.38;;;6.45;;
40449;SDS011;41787;53.570;10.032;2023-03-01T06:08:34;12.13;;;6.95;;
40449;SDS011;41787;53.570;10.032;2023-03-01T06:11:00;10.95;;;5.72;;
40449;SDS011;41787;53.570;10.032;2023-03-01T06:13:26;14.88;;;6.50;;
40449;SDS011;41787;53.570;10.032;2023-03-01T06:15:52;17.58;;;6.30;;
40449;SDS011;41787;53.570;10.032;2023-03-01T06:18:18;9.70;;;5.22;;
40449;SDS011;41787;53.570;10.032;2023-03-01T06:20:44;11.52;;;5.85;;
40449;SDS011;41787;53.570;10.032;2023-03-01T06:23:10;13.63;;;5.55;;
40449;SDS011;41787;53.570;10.032;2023-03-01T06:25:36;17.00;;;5.65;;
40449;SDS011;41787;53.570;10.032;2023-03-01T06:28:04;11.65;;;5.53;;
40449;SDS011;41787;53.570;10.032;2023-03-01T06:30:30;10.68;;;6.15;;
40449;SDS011;41787;53.570;10.032;2023-03-01T06:32:56;9.60;;;5.68;;
40449;SDS011;41787;53.570;10.032;2023-03-01T06:35:26;9.85;;;5.93;;
40449;SDS011;41787;53.570;10.032;2023-03-01T06:37:55;9.02;;;5.25;;
40449;SDS011;41787;53.570;10.032;2023-03-01T06:40:21;10.10;;;5.85;;
40449;SDS011;41787;53.570;10.032;2023-03-01T06:42:48;11.07;;;4.80;;
40449;SDS011;41787;53.570;10.032;2023-03-01T06:45:14;12.35;;;5.07;;
40449;SDS011;41787;53.570;10.032;2023-03-01T06:47:40;15.32;;;5.63;;
40449;SDS011;41787;53.570;10.032;2023-03-01T06:50:06;8.90;;;4.63;;
40449;SDS011;41787;53.570;10.032;2023-03-01T06:52:33;7.53;;;5.25;;
40449;SDS011;41787;53.570;10.032;2023-03-01T06:54:59;10.02;;;5.10;;
40449;SDS011;41787;53.570;10.032;2023-03-01T06:57:25;9.30;;;5.03;;
40449;SDS011;41787;53.570;10.032;2023-03-01T06:59:51;9.95;;;4.93;;
40449;SDS011;41787;53.570;10.032;2023-03-01T07:02:17;8.55;;;5.07;;
40449;SDS011;41787;53.570;10.032;2023-03-01T07:04:47;14.43;;;3.95;;
40449;SDS011;41787;53.570;10.032;2023-03-01T07:07:14;8.23;;;3.90;;
40449;SDS011;41787;53.570;10.032;2023-03-01T07:09:40;9.43;;;3.75;;
40449;SDS011;41787;53.570;10.032;2023-03-01T07:12:06;9.13;;;3.60;;
40449;SDS011;41787;53.570;10.032;2023-03-01T07:14:33;7.22;;;4.07;;
40449;SDS011;41787;53.570;10.032;2023-03-01T07:16:59;9.75;;;3.80;;
40449;SDS011;41787;53.570;10.032;2023-03-01T07:19:25;10.43;;;3.90;;
40449;SDS011;41787;53.570;10.032;2023-03-01T07:21:50;9.30;;;4.20;;
40449;SDS011;41787;53.570;10.032;2023-03-01T07:24:16;8.00;;;3.15;;
40449;SDS011;41787;53.570;10.032;2023-03-01T07:26:42;14.60;;;5.25;;
40449;SDS011;41787;53.570;10.032;2023-03-01T07:29:09;10.73;;;5.03;;
40449;SDS011;41787;53.570;10.032;2023-03-01T07:31:35;8.50;;;3.55;;
40449;SDS011;41787;53.570;10.032;2023-03-01T07:34:01;11.38;;;4.70;;
40449;SDS011;41787;53.570;10.032;2023-03-01T07:36:27;9.48;;;3.95;;
40449;SDS011;41787;53.570;10.032;2023-03-01T07:38:56;17.60;;;4.82;;
40449;SDS011;41787;53.570;10.032;2023-03-01T07:41:22;10.55;;;5.05;;
40449;SDS011;41787;53.570;10.032;2023-03-01T07:43:48;10.13;;;5.38;;
40449;SDS011;41787;53.570;10.032;2023-03-01T07:46:14;11.13;;;5.57;;
40449;SDS011;41787;53.570;10.032;2023-03-01T07:48:40;10.45;;;6.30;;
40449;SDS011;41787;53.570;10.032;2023-03-01T07:51:07;9.63;;;3.38;;
40449;SDS011;41787;53.570;10.032;2023-03-01T07:53:33;12.45;;;5.85;;
40449;SDS011;41787;53.570;10.032;2023-03-01T07:56:00;10.25;;;6.05;;
40449;SDS011;41787;53.570;10.032;2023-03-01T07:58:26;13.30;;;6.10;;
40449;SDS011;41787;53.570;10.032;2023-03-01T08:00:52;19.80;;;6.15;;
40449;SDS011;41787;53.570;10.032;2023-03-01T08:03:18;15.07;;;7.03;;
40449;SDS011;41787;53.570;10.032;2023-03-01T08:05:44;16.95;;;7.80;;
40449;SDS011;41787;53.570;10.032;2023-03-01T08:08:10;18.17;;;6.97;;
40449;SDS011;41787;53.570;10.032;2023-03-01T08:10:36;14.90;;;7.60;;
40449;SDS011;41787;53.570;10.032;2023-03-01T08:13:02;10.10;;;4.65;;
40449;SDS011;41787;53.570;10.032;2023-03-01T08:15:28;10.73;;;6.10;;
40449;SDS011;41787;53.570;10.032;2023-03-01T08:17:54;13.90;;;8.18;;
40449;SDS011;41787;53.570;10.032;2023-03-01T08:20:20;21.10;;;7.55;;
40449;SDS011;41787;53.570;10.032;2023-03-01T08:22:46;14.02;;;8.20;;
40449;SDS011;41787;53.570;10.032;2023-03-01T08:25:12;14.10;;;7.75;;
40449;SDS011;41787;53.570;10.032;2023-03-01T08:27:38;15.52;;;7.78;;
40449;SDS011;41787;53.570;10.032;2023-03-01T08:30:04;16.95;;;7.50;;
40449;SDS011;41787;53.570;10.032;2023-03-01T08:32:34;12.80;;;7.03;;
40449;SDS011;41787;53.570;10.032;2023-03-01T08:35:01;12.80;;;6.80;;
40449;SDS011;41787;53.570;10.032;2023-03-01T08:37:26;15.43;;;7.20;;
40449;SDS011;41787;53.570;10.032;2023-03-01T08:39:57;12.83;;;7.50;;
40449;SDS011;41787;53.570;10.032;2023-03-01T08:42:23;15.07;;;8.05;;
40449;SDS011;41787;53.570;10.032;2023-03-01T08:44:48;14.45;;;8.45;;
40449;SDS011;41787;53.570;10.032;2023-03-01T08:47:15;13.30;;;8.45;;
40449;SDS011;41787;53.570;10.032;2023-03-01T08:49:41;17.20;;;8.38;;
40449;SDS011;41787;53.570;10.032;2023-03-01T08:52:07;15.68;;;8.95;;
40449;SDS011;41787;53.570;10.032;2023-03-01T08:54:33;13.88;;;8.75;;
40449;SDS011;41787;53.570;10.032;2023-03-01T08:57:01;13.38;;;8.35;;
40449;SDS011;41787;53.570;10.032;2023-03-01T08:59:27;15.90;;;8.82;;
40449;SDS011;41787;53.570;10.032;2023-03-01T09:01:54;15.70;;;9.35;;
40449;SDS011;41787;53.570;10.032;2023-03-01T09:04:20;13.85;;;9.35;;
40449;SDS011;41787;53.570;10.032;2023-03-01T09:06:47;14.60;;;8.85;;
40449;SDS011;41787;53.570;10.032;2023-03-01T09:09:15;16.67;;;9.43;;
40449;SDS011;41787;53.570;10.032;2023-03-01T09:11:42;13.40;;;9.00;;
40449;SDS011;41787;53.570;10.032;2023-03-01T09:14:10;14.70;;;8.38;;
40449;SDS011;41787;53.570;10.032;2023-03-01T09:16:36;21.58;;;11.05;;
40449;SDS011;41787;53.570;10.032;2023-03-01T09:19:02;17.83;;;9.52;;
40449;SDS011;41787;53.570;10.032;2023-03-01T09:21:28;14.10;;;9.02;;
40449;SDS011;41787;53.570;10.032;2023-03-01T09:23:55;17.38;;;8.65;;
40449;SDS011;41787;53.570;10.032;2023-03-01T09:26:22;15.35;;;9.95;;
40449;SDS011;41787;53.570;10.032;2023-03-01T09:28:48;14.50;;;10.07;;
40449;SDS011;41787;53.570;10.032;2023-03-01T09:31:15;14.38;;;7.35;;
40449;SDS011;41787;53.570;10.032;2023-03-01T09:33:42;12.82;;;5.80;;
40449;SDS011;41787;53.570;10.032;2023-03-01T09:36:18;17.23;;;9.70;;
40449;SDS011;41787;53.570;10.032;2023-03-01T09:38:44;10.80;;;5.53;;
40449;SDS011;41787;53.570;10.032;2023-03-01T09:41:10;16.77;;;11.07;;
40449;SDS011;41787;53.570;10.032;2023-03-01T09:46:10;13.85;;;9.90;;
40449;SDS011;41787;53.570;10.032;2023-03-01T09:48:38;16.73;;;10.63;;
40449;SDS011;41787;53.570;10.032;2023-03-01T09:51:08;14.73;;;8.57;;
40449;SDS011;41787;53.570;10.032;2023-03-01T09:53:38;19.40;;;10.98;;
40449;SDS011;41787;53.570;10.032;2023-03-01T09:56:05;23.80;;;11.38;;
40449;SDS011;41787;53.570;10.032;2023-03-01T10:06:35;16.15;;;7.63;;
40449;SDS011;41787;53.570;10.032;2023-03-01T10:09:03;15.70;;;5.70;;
40449;SDS011;41787;53.570;10.032;2023-03-01T10:11:32;16.80;;;9.05;;
40449;SDS011;41787;53.570;10.032;2023-03-01T10:14:22;18.40;;;10.48;;
40449;SDS011;41787;53.570;10.032;2023-03-01T10:16:57;15.18;;;8.85;;
40449;SDS011;41787;53.570;10.032;2023-03-01T10:19:31;16.10;;;10.23;;
40449;SDS011;41787;53.570;10.032;2023-03-01T10:22:00;17.70;;;10.43;;
40449;SDS011;41787;53.570;10.032;2023-03-01T10:24:28;15.90;;;9.45;;
40449;SDS011;41787;53.570;10.032;2023-03-01T10:26:58;15.77;;;9.77;;
40449;SDS011;41787;53.570;10.032;2023-03-01T10:29:50;16.00;;;8.95;;
40449;SDS011;41787;53.570;10.032;2023-03-01T10:32:14;12.52;;;7.38;;
40449;SDS011;41787;53.570;10.032;2023-03-01T10:34:40;15.10;;;9.02;;
40449;SDS011;41787;53.570;10.032;2023-03-01T10:37:16;13.75;;;8.40;;
40449;SDS011;41787;53.570;10.032;2023-03-01T10:40:04;13.02;;;7.18;;
40449;SDS011;41787;53.570;10.032;2023-03-01T10:42:34;8.23;;;5.03;;
40449;SDS011;41787;53.570;10.032;2023-03-01T10:47:42;21.25;;;9.57;;
40449;SDS011;41787;53.570;10.032;2023-03-01T10:50:17;8.73;;;3.67;;
40449;SDS011;41787;53.570;10.032;2023-03-01T10:52:55;12.07;;;8.00;;
40449;SDS011;41787;53.570;10.032;2023-03-01T10:55:24;16.73;;;8.95;;
40449;SDS011;41787;53.570;10.032;2023-03-01T11:00:45;10.00;;;5.05;;
40449;SDS011;41787;53.570;10.032;2023-03-01T11:03:12;16.92;;;6.72;;
40449;SDS011;41787;53.570;10.032;2023-03-01T11:11:23;14.65;;;8.52;;
40449;SDS011;41787;53.570;10.032;2023-03-01T11:16:36;17.73;;;9.32;;
40449;SDS011;41787;53.570;10.032;2023-03-01T11:24:04;14.93;;;8.20;;
40449;SDS011;41787;53.570;10.032;2023-03-01T11:26:32;15.48;;;8.98;;
40449;SDS011;41787;53.570;10.032;2023-03-01T11:29:00;16.80;;;7.90;;
40449;SDS011;41787;53.570;10.032;2023-03-01T11:31:27;12.88;;;7.45;;
40449;SDS011;41787;53.570;10.032;2023-03-01T11:33:56;13.85;;;8.07;;
40449;SDS011;41787;53.570;10.032;2023-03-01T11:38:49;16.10;;;9.52;;
40449;SDS011;41787;53.570;10.032;2023-03-01T11:41:16;13.60;;;8.70;;
40449;SDS011;41787;53.570;10.032;2023-03-01T11:43:47;6.05;;;3.90;;
40449;SDS011;41787;53.570;10.032;2023-03-01T11:46:36;14.90;;;7.40;;
40449;SDS011;41787;53.570;10.032;2023-03-01T11:56:57;12.88;;;7.30;;
40449;SDS011;41787;53.570;10.032;2023-03-01T11:59:36;9.77;;;6.45;;
40449;SDS011;41787;53.570;10.032;2023-03-01T12:05:08;12.25;;;6.68;;
40449;SDS011;41787;53.570;10.032;2023-03-01T12:15:32;9.50;;;5.53;;
40449;SDS011;41787;53.570;10.032;2023-03-01T12:18:22;8.30;;;5.30;;
40449;SDS011;41787;53.570;10.032;2023-03-01T12:29:24;10.40;;;4.50;;
40449;SDS011;41787;53.570;10.032;2023-03-01T12:53:25;9.73;;;6.00;;
40449;SDS011;41787;53.570;10.032;2023-03-01T12:55:52;7.43;;;5.22;;
40449;SDS011;41787;53.570;10.032;2023-03-01T12:58:31;7.30;;;4.78;;
40449;SDS011;41787;53.570;10.032;2023-03-01T13:03:48;8.30;;;3.17;;
40449;SDS011;41787;53.570;10.032;2023-03-01T13:06:19;9.73;;;5.68;;
40449;SDS011;41787;53.570;10.032;2023-03-01T13:11:20;12.23;;;6.32;;
40449;SDS011;41787;53.570;10.032;2023-03-01T13:13:47;7.80;;;5.53;;
40449;SDS011;41787;53.570;10.032;2023-03-01T13:16:21;10.93;;;6.20;;
40449;SDS011;41787;53.570;10.032;2023-03-01T13:18:47;10.52;;;7.03;;
40449;SDS011;41787;53.570;10.032;2023-03-01T13:21:13;9.15;;;6.35;;
40449;SDS011;41787;53.570;10.032;2023-03-01T13:23:54;10.68;;;6.57;;
40449;SDS011;41787;53.570;10.032;2023-03-01T13:26:20;8.38;;;5.68;;
40449;SDS011;41787;53.570;10.032;2023-03-01T13:28:56;6.15;;;3.92;;
40449;SDS011;41787;53.570;10.032;2023-03-01T13:33:57;5.68;;;2.70;;
40449;SDS011;41787;53.570;10.032;2023-03-01T13:39:46;7.68;;;3.53;;
40449;SDS011;41787;53.570;10.032;2023-03-01T13:41:52;6.95;;;4.43;;
40449;SDS011;41787;53.570;10.032;2023-03-01T13:46:44;8.10;;;3.67;;
40449;SDS011;41787;53.570;10.032;2023-03-01T13:49:21;8.77;;;5.78;;
40449;SDS011;41787;53.570;10.032;2023-03-01T13:51:48;8.82;;;5.43;;
40449;SDS011;41787;53.570;10.032;2023-03-01T13:54:14;8.95;;;5.65;;
40449;SDS011;41787;53.570;10.032;2023-03-01T13:56:41;9.05;;;5.47;;
40449;SDS011;41787;53.570;10.032;2023-03-01T13:59:14;7.70;;;5.43;;
40449;SDS011;41787;53.570;10.032;2023-03-01T14:01:42;8.10;;;4.38;;
40449;SDS011;41787;53.570;10.032;2023-03-01T14:04:18;5.43;;;3.20;;
40449;SDS011;41787;53.570;10.032;2023-03-01T14:06:45;6.13;;;3.35;;
40449;SDS011;41787;53.570;10.032;2023-03-01T14:09:16;6.00;;;3.05;;
40449;SDS011;41787;53.570;10.032;2023-03-01T14:14:21;8.38;;;2.78;;
40449;SDS011;41787;53.570;10.032;2023-03-01T14:17:05;5.88;;;3.10;;
40449;SDS011;41787;53.570;10.032;2023-03-01T14:19:35;4.40;;;2.60;;
40449;SDS011;41787;53.570;10.032;2023-03-01T14:22:21;9.43;;;4.90;;
40449;SDS011;41787;53.570;10.032;2023-03-01T14:24:49;6.50;;;4.72;;
40449;SDS011;41787;53.570;10.032;2023-03-01T14:27:15;5.78;;;3.58;;
40449;SDS011;41787;53.570;10.032;2023-03-01T14:29:42;7.78;;;4.05;;
40449;SDS011;41787;53.570;10.032;2023-03-01T14:32:09;6.15;;;4.43;;
40449;SDS011;41787;53.570;10.032;2023-03-01T14:34:35;7.78;;;4.13;;
40449;SDS011;41787;53.570;10.032;2023-03-01T14:37:18;7.22;;;4.20;;
40449;SDS011;41787;53.570;10.032;2023-03-01T14:39:44;8.75;;;5.38;;
40449;SDS011;41787;53.570;10.032;2023-03-01T14:42:11;4.63;;;2.67;;
40449;SDS011;41787;53.570;10.032;2023-03-01T14:44:38;6.22;;;3.55;;
40449;SDS011;41787;53.570;10.032;2023-03-01T14:47:06;4.93;;;3.72;;
40449;SDS011;41787;53.570;10.032;2023-03-01T14:52:03;8.82;;;4.90;;
40449;SDS011;41787;53.570;10.032;2023-03-01T14:56:59;9.02;;;5.57;;
40449;SDS011;41787;53.570;10.032;2023-03-01T14:59:25;5.60;;;3.50;;
40449;SDS011;41787;53.570;10.032;2023-03-01T15:01:51;3.80;;;2.28;;
40449;SDS011;41787;53.570;10.032;2023-03-01T15:04:19;8.48;;;3.92;;
40449;SDS011;41787;53.570;10.032;2023-03-01T15:06:45;6.03;;;4.18;;
40449;SDS011;41787;53.570;10.032;2023-03-01T15:09:13;7.63;;;4.68;;
40449;SDS011;41787;53.570;10.032;2023-03-01T15:11:41;7.53;;;4.13;;
40449;SDS011;41787;53.570;10.032;2023-03-01T15:16:56;7.15;;;4.70;;
40449;SDS011;41787;53.570;10.032;2023-03-01T15:19:23;6.60;;;4.05;;
40449;SDS011;41787;53.570;10.032;2023-03-01T15:21:50;5.78;;;3.65;;
40449;SDS011;41787;53.570;10.032;2023-03-01T15:24:38;6.35;;;4.05;;
40449;SDS011;41787;53.570;10.032;2023-03-01T15:27:04;8.68;;;4.88;;
40449;SDS011;41787;53.570;10.032;2023-03-01T15:29:34;5.55;;;2.95;;
40449;SDS011;41787;53.570;10.032;2023-03-01T15:32:06;8.70;;;3.65;;
40449;SDS011;41787;53.570;10.032;2023-03-01T15:34:46;4.20;;;2.60;;
40449;SDS011;41787;53.570;10.032;2023-03-01T15:37:35;4.82;;;3.50;;
40449;SDS011;41787;53.570;10.032;2023-03-01T15:47:46;6.18;;;3.65;;
40449;SDS011;41787;53.570;10.032;2023-03-01T15:50:23;3.05;;;2.13;;
40449;SDS011;41787;53.570;10.032;2023-03-01T15:52:50;4.35;;;3.20;;
40449;SDS011;41787;53.570;10.032;2023-03-01T15:57:42;4.95;;;2.53;;
40449;SDS011;41787;53.570;10.032;2023-03-01T16:00:11;3.00;;;2.20;;
40449;SDS011;41787;53.570;10.032;2023-03-01T16:05:04;5.90;;;3.33;;
40449;SDS011;41787;53.570;10.032;2023-03-01T16:07:30;5.82;;;2.92;;
40449;SDS011;41787;53.570;10.032;2023-03-01T16:09:56;3.45;;;2.00;;
40449;SDS011;41787;53.570;10.032;2023-03-01T16:12:22;5.72;;;3.42;;
40449;SDS011;41787;53.570;10.032;2023-03-01T16:14:49;3.17;;;2.10;;
40449;SDS011;41787;53.570;10.032;2023-03-01T16:17:16;6.22;;;3.10;;
40449;SDS011;41787;53.570;10.032;2023-03-01T16:19:41;2.78;;;1.88;;
40449;SDS011;41787;53.570;10.032;2023-03-01T16:22:11;6.82;;;4.13;;
40449;SDS011;41787;53.570;10.032;2023-03-01T16:24:36;4.37;;;3.03;;
40449;SDS011;41787;53.570;10.032;2023-03-01T16:27:02;10.00;;;3.55;;
40449;SDS011;41787;53.570;10.032;2023-03-01T16:29:28;8.65;;;4.95;;
40449;SDS011;41787;53.570;10.032;2023-03-01T16:31:55;8.07;;;3.63;;
40449;SDS011;41787;53.570;10.032;2023-03-01T16:34:21;8.35;;;4.65;;